TimeEDT,TemperatureF,Dew PointF,Humidity,Sea Level PressureIn,VisibilityMPH,Wind Direction,Wind SpeedMPH,Gust SpeedMPH,PrecipitationIn,Events,Conditions,WindDirDegrees,DateUTC
12:52 AM,77.0,72.0,84,29.78,10.0,SSW,9.2,-,N/A,,Partly Cloudy,200,2012-10-02 04:52:00
1:52 AM,77.0,72.0,84,29.78,10.0,South,8.1,-,N/A,,Scattered Clouds,190,2012-10-02 05:52:00
2:52 AM,75.9,71.1,85,29.78,10.0,SSW,9.2,-,N/A,,Mostly Cloudy,210,2012-10-02 06:52:00
3:52 AM,75.9,71.1,85,29.78,10.0,SSW,8.1,-,N/A,,Clear,200,2012-10-02 07:52:00
4:52 AM,75.9,70.0,82,29.79,10.0,SSW,8.1,-,N/A,,Clear,200,2012-10-02 08:52:00
5:52 AM,75.0,71.1,87,29.80,10.0,South,8.1,-,N/A,,Clear,190,2012-10-02 09:52:00
6:01 AM,75.2,71.6,89,29.80,10.0,SSW,8.1,-,N/A,,Scattered Clouds,200,2012-10-02 10:01:00
6:52 AM,75.0,70.0,84,29.81,10.0,SSW,8.1,-,N/A,,Scattered Clouds,210,2012-10-02 10:52:00
7:52 AM,75.0,71.1,87,29.83,9.0,SSW,8.1,-,N/A,,Scattered Clouds,210,2012-10-02 11:52:00
8:45 AM,75.2,71.6,89,29.85,10.0,SSW,8.1,-,N/A,,Mostly Cloudy,200,2012-10-02 12:45:00
8:52 AM,77.0,72.0,84,29.85,10.0,SSW,8.1,-,N/A,,Mostly Cloudy,200,2012-10-02 12:52:00
9:52 AM,80.1,73.0,79,29.87,10.0,SW,13.8,-,N/A,,Mostly Cloudy,220,2012-10-02 13:52:00
10:19 AM,80.6,71.6,74,29.88,10.0,SW,18.4,23.0,N/A,,Mostly Cloudy,230,2012-10-02 14:19:00
10:52 AM,81.0,71.1,72,29.88,10.0,SW,13.8,24.2,N/A,,Mostly Cloudy,220,2012-10-02 14:52:00
11:52 AM,82.9,71.1,67,29.89,10.0,WSW,9.2,-,N/A,,Mostly Cloudy,250,2012-10-02 15:52:00
12:45 PM,84.2,69.8,62,29.89,10.0,WSW,10.4,-,0.00,,Mostly Cloudy,240,2012-10-02 16:45:00
12:52 PM,86.0,71.1,61,29.89,10.0,SW,11.5,-,0.00,,Mostly Cloudy,230,2012-10-02 16:52:00
1:52 PM,86.0,68.0,55,29.87,10.0,SW,18.4,24.2,N/A,,Mostly Cloudy,220,2012-10-02 17:52:00
2:02 PM,80.6,69.8,70,29.88,5.0,SW,11.5,32.2,0.02,Rain,Rain,220,2012-10-02 18:02:00
2:52 PM,84.9,72.0,65,29.87,10.0,SW,12.7,-,0.02,,Mostly Cloudy,220,2012-10-02 18:52:00
3:52 PM,90.0,70.0,52,29.85,10.0,SSW,13.8,21.9,N/A,,Mostly Cloudy,210,2012-10-02 19:52:00
4:52 PM,86.0,66.9,53,29.86,10.0,SW,12.7,-,N/A,,Mostly Cloudy,220,2012-10-02 20:52:00
5:52 PM,84.0,68.0,58,29.88,10.0,SW,5.8,-,N/A,,Mostly Cloudy,230,2012-10-02 21:52:00
6:52 PM,82.0,69.1,65,29.91,10.0,SW,9.2,-,N/A,,Mostly Cloudy,220,2012-10-02 22:52:00
7:52 PM,80.1,69.1,69,29.94,10.0,SSW,6.9,-,N/A,,Mostly Cloudy,210,2012-10-02 23:52:00
8:52 PM,79.0,68.0,69,29.96,10.0,SW,6.9,-,N/A,,Mostly Cloudy,220,2012-10-03 00:52:00
9:52 PM,78.1,69.1,74,29.98,10.0,SSW,5.8,-,N/A,,Scattered Clouds,210,2012-10-03 01:52:00
10:52 PM,79.0,69.1,72,30.01,10.0,SSW,5.8,-,0.00,Rain,Light Rain,210,2012-10-03 02:52:00
11:52 PM,77.0,71.1,82,30.01,10.0,SSW,4.6,-,0.01,Rain,Light Rain,210,2012-10-03 03:52:00